Time;durP1;ratioP1;P1;durP2;ratioP2;P2;SDS_P1;SDS_P2;PMS_P1;PMS_P2;Temp;Humidity;BMP_temperature;BMP_pressure;BME280_temperature;BME280_humidity;BME280_pressure;Samples;Min_cycle;Max_cycle;Signal;HPM_P1;HPM_P2
2023/08/20 00:01:43;;;;;;;0.90;0.90;;;15.50;99.90;;;;;;4954818;28;20047;-87
2023/08/20 00:04:10;;;;;;;0.77;0.77;;;15.50;99.90;;;;;;4958969;28;20157;-87
2023/08/20 00:06:36;;;;;;;0.80;0.80;;;16.40;99.90;;;;;;4962217;28;20046;-86
2023/08/20 00:09:01;;;;;;;0.77;0.77;;;15.90;99.90;;;;;;4957784;28;20678;-88
2023/08/20 00:11:27;;;;;;;0.80;0.80;;;16.30;99.90;;;;;;4939801;28;20051;-88
2023/08/20 00:13:53;;;;;;;0.77;0.77;;;16.00;99.90;;;;;;4958981;28;20051;-87
2023/08/20 00:16:19;;;;;;;0.73;0.73;;;16.60;99.90;;;;;;4963060;28;20054;-88
2023/08/20 00:18:44;;;;;;;0.68;0.68;;;16.50;99.90;;;;;;4945089;28;20058;-87
2023/08/20 00:21:10;;;;;;;0.70;0.70;;;16.20;99.90;;;;;;4940997;28;20054;-87
2023/08/20 00:23:36;;;;;;;0.73;0.73;;;16.30;99.90;;;;;;4957316;28;20061;-87
2023/08/20 00:26:03;;;;;;;0.85;0.85;;;16.00;99.90;;;;;;4958940;28;20062;-87
2023/08/20 00:28:29;;;;;;;0.88;0.88;;;16.40;99.90;;;;;;4958742;28;20116;-87
2023/08/20 00:30:54;;;;;;;0.80;0.80;;;16.10;99.90;;;;;;4957980;28;20054;-86
2023/08/20 00:33:20;;;;;;;0.80;0.80;;;16.20;99.90;;;;;;4964551;28;20054;-86
2023/08/20 00:35:45;;;;;;;0.80;0.80;;;15.80;99.90;;;;;;4942169;28;20542;-86
2023/08/20 00:38:11;;;;;;;0.80;0.80;;;16.20;99.90;;;;;;4977878;28;20416;-86
2023/08/20 00:40:37;;;;;;;0.80;0.80;;;15.90;99.90;;;;;;4961029;28;20054;-87
2023/08/20 00:43:03;;;;;;;0.77;0.77;;;16.20;99.90;;;;;;4977755;28;20046;-86
2023/08/20 00:45:28;;;;;;;0.93;0.93;;;16.30;99.90;;;;;;4976940;28;20103;-87
2023/08/20 00:47:54;;;;;;;0.88;0.88;;;16.10;99.90;;;;;;4960175;28;20112;-86
2023/08/20 00:50:20;;;;;;;0.82;0.82;;;15.70;99.90;;;;;;4956488;28;20054;-85
2023/08/20 00:52:47;;;;;;;0.82;0.82;;;15.40;99.90;;;;;;4957723;28;20131;-87
2023/08/20 00:55:13;;;;;;;0.90;0.90;;;15.60;99.90;;;;;;4956347;28;20525;-85
2023/08/20 00:57:39;;;;;;;0.73;0.73;;;15.60;99.90;;;;;;4959689;28;20113;-87
2023/08/20 01:00:07;;;;;;;0.63;0.63;;;15.60;99.90;;;;;;4944383;28;20125;-86
2023/08/20 01:02:34;;;;;;;0.68;0.68;;;15.20;99.90;;;;;;4956144;28;20576;-85
2023/08/20 01:05:01;;;;;;;0.70;0.70;;;15.20;99.90;;;;;;4977996;28;20047;-87
2023/08/20 01:08:02;;;;;;;0.60;0.60;;;15.20;99.90;;;;;;4959700;28;20046;-87
2023/08/20 01:10:38;;;;;;;0.50;0.50;;;15.70;99.90;;;;;;4965737;28;20563;-87
2023/08/20 01:13:05;;;;;;;0.50;0.50;;;16.10;99.90;;;;;;4966666;28;20050;-87
2023/08/20 01:15:31;;;;;;;0.60;0.60;;;15.70;99.90;;;;;;4959296;28;20047;-88
2023/08/20 01:18:00;;;;;;;0.52;0.52;;;15.60;99.90;;;;;;4961371;28;20048;-88
2023/08/20 01:20:32;;;;;;;0.50;0.50;;;16.00;99.90;;;;;;4942306;28;20496;-88
2023/08/20 01:23:27;;;;;;;0.55;0.55;;;16.00;99.90;;;;;;4956634;28;20538;-88
2023/08/20 01:26:12;;;;;;;0.60;0.60;;;16.00;99.90;;;;;;4965808;28;20562;-88
2023/08/20 01:28:39;;;;;;;0.60;0.60;;;16.00;99.90;;;;;;4983262;28;20093;-89
2023/08/20 01:31:07;;;;;;;0.60;0.60;;;16.30;99.90;;;;;;4956588;28;20108;-88
2023/08/20 01:33:34;;;;;;;0.55;0.55;;;15.80;99.90;;;;;;4961295;28;20099;-88
2023/08/20 01:35:59;;;;;;;0.60;0.60;;;15.90;99.90;;;;;;4961774;28;20047;-88
2023/08/20 01:38:25;;;;;;;0.55;0.55;;;15.90;99.90;;;;;;4954808;28;20038;-88
2023/08/20 01:40:51;;;;;;;0.65;0.65;;;16.10;99.90;;;;;;4946328;28;20046;-87
2023/08/20 01:43:17;;;;;;;0.65;0.65;;;15.70;99.90;;;;;;4960649;28;20058;-88
2023/08/20 01:45:43;;;;;;;0.63;0.63;;;16.10;99.90;;;;;;4946111;28;20046;-88
2023/08/20 01:48:08;;;;;;;0.65;0.65;;;15.90;99.90;;;;;;4944753;28;20133;-88
2023/08/20 01:50:35;;;;;;;0.63;0.63;;;15.70;99.90;;;;;;4965875;28;20047;-89
2023/08/20 01:53:02;;;;;;;0.65;0.65;;;15.70;99.90;;;;;;4946517;28;20493;-88
2023/08/20 01:55:28;;;;;;;0.65;0.65;;;16.10;99.90;;;;;;4944981;28;20157;-88
2023/08/20 01:57:54;;;;;;;0.68;0.68;;;16.10;99.90;;;;;;4959844;28;20137;-88
2023/08/20 02:00:19;;;;;;;0.73;0.73;;;16.10;99.90;;;;;;4962639;28;20078;-88
2023/08/20 02:02:45;;;;;;;0.73;0.73;;;15.60;99.90;;;;;;4947469;28;20051;-88
2023/08/20 02:05:11;;;;;;;0.75;0.75;;;15.80;99.90;;;;;;4949374;28;20050;-88
2023/08/20 02:07:36;;;;;;;0.75;0.75;;;15.60;99.90;;;;;;4970768;28;20104;-88
2023/08/20 02:10:02;;;;;;;0.68;0.68;;;16.00;99.90;;;;;;4951134;28;20189;-88
2023/08/20 02:12:28;;;;;;;0.77;0.77;;;16.10;99.90;;;;;;4983943;28;20452;-88
2023/08/20 02:14:54;;;;;;;0.75;0.75;;;16.10;99.90;;;;;;4964793;28;20081;-89
2023/08/20 02:17:19;;;;;;;0.70;0.70;;;16.30;99.90;;;;;;4965263;28;20047;-89
2023/08/20 02:19:45;;;;;;;0.68;0.68;;;15.70;99.90;;;;;;4965427;28;20047;-87
2023/08/20 02:22:11;;;;;;;0.77;0.77;;;15.50;99.90;;;;;;4966311;28;20047;-87
2023/08/20 02:24:37;;;;;;;0.65;0.65;;;15.90;99.90;;;;;;4965588;28;20062;-88
2023/08/20 02:27:03;;;;;;;0.60;0.60;;;15.70;99.90;;;;;;4970189;28;20043;-88
2023/08/20 02:29:29;;;;;;;0.60;0.60;;;15.60;99.90;;;;;;4966754;28;20069;-88
2023/08/20 02:31:54;;;;;;;0.68;0.68;;;15.50;99.90;;;;;;4972736;28;20054;-90
2023/08/20 02:34:20;;;;;;;0.65;0.65;;;15.60;99.90;;;;;;4942844;28;20060;-89
2023/08/20 02:36:46;;;;;;;0.65;0.65;;;15.60;99.90;;;;;;4965341;28;20108;-89
2023/08/20 02:39:13;;;;;;;0.65;0.65;;;15.60;99.90;;;;;;4969764;28;20423;-88
2023/08/20 02:41:38;;;;;;;0.63;0.63;;;15.70;99.90;;;;;;4964829;28;20050;-87
2023/08/20 02:44:04;;;;;;;0.57;0.57;;;15.70;99.90;;;;;;4948781;28;20141;-89
2023/08/20 02:46:30;;;;;;;0.63;0.63;;;15.60;99.90;;;;;;4950523;28;20051;-89
2023/08/20 02:48:56;;;;;;;0.57;0.57;;;15.70;99.90;;;;;;4964933;28;20062;-88
2023/08/20 02:51:22;;;;;;;0.60;0.60;;;15.60;99.90;;;;;;4951586;28;20065;-89
2023/08/20 02:53:48;;;;;;;0.63;0.63;;;15.70;99.90;;;;;;4949031;28;20044;-88
2023/08/20 02:56:14;;;;;;;0.57;0.57;;;15.20;99.90;;;;;;4948271;28;20054;-88
2023/08/20 02:58:39;;;;;;;0.57;0.57;;;15.00;99.90;;;;;;4967452;28;20422;-88
2023/08/20 03:01:05;;;;;;;0.60;0.60;;;15.00;99.90;;;;;;4966331;28;20046;-88
2023/08/20 03:03:31;;;;;;;0.55;0.55;;;15.30;99.90;;;;;;4963633;28;20172;-88
2023/08/20 03:05:56;;;;;;;0.60;0.60;;;15.30;99.90;;;;;;4948249;28;20427;-88
2023/08/20 03:08:22;;;;;;;0.60;0.60;;;15.10;99.90;;;;;;4967138;28;20054;-88
2023/08/20 03:10:48;;;;;;;0.60;0.60;;;15.20;99.90;;;;;;4983914;28;20058;-87
2023/08/20 03:13:14;;;;;;;0.60;0.60;;;15.00;99.90;;;;;;4961043;28;20050;-88
2023/08/20 03:15:39;;;;;;;0.60;0.60;;;15.40;99.90;;;;;;4962475;28;20101;-88
2023/08/20 03:18:06;;;;;;;0.60;0.60;;;15.00;99.90;;;;;;4955459;28;20138;-87
2023/08/20 03:20:31;;;;;;;0.60;0.60;;;15.20;99.90;;;;;;4947939;28;20046;-88
2023/08/20 03:22:58;;;;;;;0.60;0.60;;;15.00;99.90;;;;;;4962573;28;20042;-88
2023/08/20 03:25:24;;;;;;;0.60;0.60;;;15.00;99.90;;;;;;4965904;28;20042;-88
2023/08/20 03:27:51;;;;;;;0.57;0.57;;;15.20;99.90;;;;;;4970179;28;20072;-87
2023/08/20 03:30:17;;;;;;;0.60;0.60;;;14.90;99.90;;;;;;4965031;28;20050;-88
2023/08/20 03:32:43;;;;;;;0.60;0.60;;;15.20;99.90;;;;;;4964948;28;20065;-88
2023/08/20 03:35:09;;;;;;;0.60;0.60;;;14.70;99.90;;;;;;4951250;28;20496;-87
2023/08/20 03:37:34;;;;;;;0.60;0.60;;;14.70;99.90;;;;;;4950861;28;20073;-88
2023/08/20 03:40:00;;;;;;;0.60;0.60;;;15.00;99.90;;;;;;4965632;28;20074;-87
2023/08/20 03:42:26;;;;;;;0.60;0.60;;;15.00;99.90;;;;;;4983482;28;20141;-87
2023/08/20 03:44:51;;;;;;;0.60;0.60;;;14.80;99.90;;;;;;4965131;28;20100;-87
2023/08/20 03:47:20;;;;;;;0.60;0.60;;;14.70;99.90;;;;;;4967188;28;20061;-87
2023/08/20 03:49:47;;;;;;;0.60;0.60;;;15.00;99.90;;;;;;4946745;28;20765;-87
2023/08/20 03:52:13;;;;;;;0.60;0.60;;;15.20;99.90;;;;;;4960929;28;20496;-87
2023/08/20 03:54:39;;;;;;;0.60;0.60;;;14.80;99.90;;;;;;4967459;28;20057;-86
2023/08/20 03:57:05;;;;;;;0.60;0.60;;;14.80;99.90;;;;;;4963842;28;20120;-86
2023/08/20 03:59:31;;;;;;;0.60;0.60;;;14.70;99.90;;;;;;4949214;28;20046;-89
2023/08/20 04:01:56;;;;;;;0.60;0.60;;;14.70;99.90;;;;;;4969483;28;20138;-88
2023/08/20 04:04:22;;;;;;;0.60;0.60;;;14.80;99.90;;;;;;4965695;28;20050;-87
2023/08/20 04:06:48;;;;;;;0.60;0.60;;;14.90;99.90;;;;;;4983498;28;20543;-87
2023/08/20 04:09:14;;;;;;;0.60;0.60;;;14.70;99.90;;;;;;4959961;28;20050;-87
2023/08/20 04:11:39;;;;;;;0.60;0.60;;;14.70;99.90;;;;;;4961249;28;20042;-87
2023/08/20 04:14:05;;;;;;;0.60;0.60;;;14.90;99.90;;;;;;4969650;28;20054;-87
2023/08/20 04:16:31;;;;;;;0.60;0.60;;;14.50;99.90;;;;;;4957633;28;20035;-86
2023/08/20 04:18:56;;;;;;;0.60;0.60;;;14.50;99.90;;;;;;4944064;28;20057;-87
2023/08/20 04:21:22;;;;;;;0.60;0.60;;;14.50;99.90;;;;;;4962461;28;20045;-87
2023/08/20 04:23:48;;;;;;;0.60;0.60;;;14.60;99.90;;;;;;4961482;28;20400;-86
2023/08/20 04:26:14;;;;;;;0.60;0.60;;;14.50;99.90;;;;;;4966625;28;20654;-86
2023/08/20 04:28:39;;;;;;;0.60;0.60;;;14.60;99.90;;;;;;4948320;28;20452;-86
2023/08/20 04:31:05;;;;;;;0.60;0.60;;;14.90;99.90;;;;;;4947451;28;20077;-86
2023/08/20 04:33:31;;;;;;;0.60;0.60;;;14.90;99.90;;;;;;4964263;28;20042;-86
2023/08/20 04:35:56;;;;;;;0.60;0.60;;;14.90;99.90;;;;;;4963509;28;20058;-86
2023/08/20 04:38:22;;;;;;;0.60;0.60;;;14.70;99.90;;;;;;4965280;28;20042;-86
2023/08/20 04:40:49;;;;;;;0.50;0.50;;;14.50;99.90;;;;;;4964597;28;20050;-87
2023/08/20 04:43:15;;;;;;;0.60;0.60;;;15.20;99.90;;;;;;4958691;28;20128;-86
2023/08/20 04:45:41;;;;;;;0.60;0.60;;;14.70;99.90;;;;;;4963536;28;20050;-86
2023/08/20 04:48:07;;;;;;;0.60;0.60;;;15.40;99.90;;;;;;4961837;28;20046;-86
2023/08/20 04:50:33;;;;;;;0.60;0.60;;;15.20;99.90;;;;;;4963321;28;20046;-86
2023/08/20 04:52:59;;;;;;;0.70;0.70;;;15.50;99.90;;;;;;4983237;28;20046;-86
2023/08/20 04:55:26;;;;;;;0.60;0.60;;;15.30;99.90;;;;;;4965553;28;20049;-85
2023/08/20 04:57:52;;;;;;;0.70;0.70;;;15.50;99.90;;;;;;4962524;28;20152;-87
2023/08/20 05:00:20;;;;;;;0.68;0.68;;;15.20;99.90;;;;;;4963470;28;20039;-87
2023/08/20 05:02:45;;;;;;;0.70;0.70;;;15.70;99.90;;;;;;4968520;28;20062;-86
2023/08/20 05:05:11;;;;;;;0.60;0.60;;;15.20;99.90;;;;;;4963903;28;20046;-87
2023/08/20 05:07:37;;;;;;;0.60;0.60;;;15.30;99.90;;;;;;4947712;28;20511;-87
2023/08/20 05:10:03;;;;;;;0.57;0.57;;;16.30;99.90;;;;;;4959385;28;20043;-87
2023/08/20 05:12:29;;;;;;;0.50;0.50;;;16.40;99.90;;;;;;4960368;28;20882;-87
2023/08/20 05:14:55;;;;;;;0.50;0.50;;;16.60;99.90;;;;;;4964896;28;20057;-87
2023/08/20 05:17:20;;;;;;;0.50;0.50;;;16.40;99.90;;;;;;4953287;28;20057;-87
2023/08/20 05:19:46;;;;;;;0.50;0.50;;;17.40;99.90;;;;;;4966095;28;20105;-87
2023/08/20 05:22:12;;;;;;;0.60;0.60;;;18.60;99.90;;;;;;4957843;28;20055;-86
2023/08/20 05:24:38;;;;;;;0.60;0.60;;;19.30;99.90;;;;;;4957253;28;20137;-86
2023/08/20 05:27:09;;;;;;;0.90;0.90;;;20.00;99.90;;;;;;4964457;28;20050;-88
2023/08/20 05:29:37;;;;;;;1.13;1.13;;;20.60;99.90;;;;;;4963674;28;20042;-87
2023/08/20 05:32:02;;;;;;;1.02;1.02;;;21.20;99.90;;;;;;4963235;28;20044;-85
2023/08/20 05:34:28;;;;;;;0.90;0.90;;;21.60;99.90;;;;;;4983096;28;20065;-88
2023/08/20 05:36:54;;;;;;;0.93;0.93;;;21.90;99.90;;;;;;4959441;28;20570;-89
2023/08/20 05:39:20;;;;;;;0.77;0.77;;;22.40;99.90;;;;;;4939799;28;20043;-89
2023/08/20 05:41:45;;;;;;;0.80;0.80;;;22.70;99.90;;;;;;4957271;28;20400;-88
2023/08/20 05:44:11;;;;;;;1.05;0.80;;;22.90;99.90;;;;;;4956943;28;20600;-86
2023/08/20 05:46:37;;;;;;;0.90;0.90;;;23.30;99.90;;;;;;4966017;28;20187;-88
2023/08/20 05:49:02;;;;;;;0.80;0.80;;;23.70;99.90;;;;;;4958034;28;20038;-86
2023/08/20 05:51:28;;;;;;;0.80;0.80;;;23.80;99.90;;;;;;4942461;28;20058;-87
2023/08/20 05:53:54;;;;;;;0.90;0.90;;;23.30;99.90;;;;;;4962789;28;20034;-86
2023/08/20 05:56:19;;;;;;;0.88;0.88;;;21.90;99.90;;;;;;4955312;28;20046;-88
2023/08/20 05:58:45;;;;;;;0.90;0.90;;;21.30;99.90;;;;;;4942779;28;20495;-88
2023/08/20 06:01:11;;;;;;;0.90;0.90;;;21.00;99.90;;;;;;4958445;28;20046;-87
2023/08/20 06:03:37;;;;;;;0.90;0.90;;;20.70;99.90;;;;;;4965507;28;20050;-87
2023/08/20 06:06:02;;;;;;;0.93;0.93;;;20.50;99.90;;;;;;4964118;28;20043;-88
2023/08/20 06:08:28;;;;;;;0.90;0.90;;;20.50;99.90;;;;;;4946966;28;20069;-89
2023/08/20 06:10:54;;;;;;;0.80;0.80;;;20.40;99.90;;;;;;4943976;28;20100;-87
2023/08/20 06:13:20;;;;;;;0.80;0.80;;;20.40;99.90;;;;;;4960022;28;20455;-87
2023/08/20 06:15:45;;;;;;;0.80;0.80;;;20.40;99.90;;;;;;4965687;28;20047;-87
2023/08/20 06:18:11;;;;;;;0.90;0.90;;;20.30;99.90;;;;;;4962224;28;20038;-86
2023/08/20 06:20:36;;;;;;;0.85;0.85;;;20.50;99.90;;;;;;4957015;28;20654;-87
2023/08/20 06:23:03;;;;;;;0.80;0.80;;;20.40;99.90;;;;;;4955860;28;20046;-88
2023/08/20 06:25:28;;;;;;;0.80;0.80;;;20.50;99.90;;;;;;4957098;28;20046;-87
2023/08/20 06:27:54;;;;;;;0.70;0.70;;;20.60;99.90;;;;;;4958352;28;20050;-87
2023/08/20 06:30:20;;;;;;;0.60;0.60;;;20.70;99.90;;;;;;4954544;28;20499;-86
2023/08/20 06:32:45;;;;;;;0.60;0.60;;;20.80;99.90;;;;;;4955696;28;20138;-86
2023/08/20 06:35:11;;;;;;;0.63;0.63;;;21.10;99.90;;;;;;4954322;28;20114;-87
2023/08/20 06:37:40;;;;;;;0.70;0.70;;;21.00;99.90;;;;;;4962023;28;20550;-89
2023/08/20 06:40:07;;;;;;;0.60;0.60;;;20.90;99.90;;;;;;4956970;28;20050;-87
2023/08/20 06:42:32;;;;;;;0.70;0.70;;;21.10;99.90;;;;;;4959428;28;20399;-86
2023/08/20 06:44:58;;;;;;;0.60;0.60;;;21.20;99.90;;;;;;4982241;28;20054;-87
2023/08/20 06:47:23;;;;;;;0.50;0.50;;;21.40;99.90;;;;;;4956438;28;20054;-86
2023/08/20 06:49:50;;;;;;;0.50;0.50;;;21.50;99.90;;;;;;4959368;28;20046;-86
2023/08/20 06:52:16;;;;;;;0.60;0.60;;;21.30;99.90;;;;;;4966274;28;20047;-86
2023/08/20 06:54:41;;;;;;;0.50;0.50;;;21.40;99.90;;;;;;4984845;28;20049;-86
2023/08/20 06:57:07;;;;;;;0.60;0.60;;;21.70;99.90;;;;;;4944237;28;20975;-87
2023/08/20 06:59:32;;;;;;;0.60;0.60;;;21.70;99.90;;;;;;4965158;28;20134;-87
2023/08/20 07:01:58;;;;;;;0.60;0.60;;;21.80;99.90;;;;;;4962655;28;20653;-87
2023/08/20 07:04:24;;;;;;;0.50;0.50;;;21.80;99.90;;;;;;4954459;28;20108;-86
2023/08/20 07:06:51;;;;;;;0.50;0.50;;;21.80;99.90;;;;;;4958256;28;20039;-88
2023/08/20 07:09:17;;;;;;;0.50;0.50;;;21.90;99.90;;;;;;4952570;28;20038;-86
2023/08/20 07:11:42;;;;;;;0.50;0.50;;;21.90;99.90;;;;;;4958391;28;20120;-88
2023/08/20 07:14:08;;;;;;;0.50;0.50;;;22.10;99.90;;;;;;4959165;28;20046;-87
2023/08/20 07:16:33;;;;;;;0.50;0.50;;;22.10;99.90;;;;;;4961167;28;20138;-88
2023/08/20 07:18:59;;;;;;;0.50;0.50;;;22.10;99.90;;;;;;4954980;28;20043;-87
2023/08/20 07:21:25;;;;;;;0.50;0.50;;;22.20;99.90;;;;;;4965135;28;20044;-86
2023/08/20 07:23:50;;;;;;;0.40;0.40;;;22.20;99.90;;;;;;4967859;28;20050;-87
2023/08/20 07:26:16;;;;;;;0.50;0.50;;;22.20;99.90;;;;;;4958711;28;20105;-87
2023/08/20 07:28:57;;;;;;;0.50;0.50;;;22.10;99.90;;;;;;4960670;28;20581;-86
2023/08/20 07:31:23;;;;;;;0.50;0.50;;;22.20;99.90;;;;;;4965941;28;20042;-89
2023/08/20 07:33:50;;;;;;;0.50;0.50;;;22.40;99.90;;;;;;4967931;28;20519;-87
2023/08/20 07:36:17;;;;;;;0.50;0.50;;;22.50;99.90;;;;;;4962065;28;20046;-88
2023/08/20 07:38:43;;;;;;;1.55;0.57;;;22.60;99.90;;;;;;4954324;28;20050;-89
2023/08/20 07:41:10;;;;;;;0.45;0.45;;;22.80;99.90;;;;;;4949927;28;20042;-89
2023/08/20 07:43:38;;;;;;;0.50;0.50;;;22.80;99.90;;;;;;4941996;28;20055;-90
2023/08/20 07:46:04;;;;;;;0.50;0.50;;;22.80;99.90;;;;;;4964009;28;20050;-93
2023/08/20 07:48:30;;;;;;;0.50;0.50;;;22.80;99.90;;;;;;4952452;28;20706;-87
2023/08/20 07:50:56;;;;;;;0.73;0.73;;;22.90;99.90;;;;;;4966807;28;20182;-88
2023/08/20 07:53:22;;;;;;;0.50;0.50;;;23.00;99.90;;;;;;4967529;28;20043;-88
2023/08/20 07:55:47;;;;;;;0.47;0.47;;;23.10;99.90;;;;;;4960201;28;20054;-85
2023/08/20 07:58:13;;;;;;;0.60;0.60;;;23.30;99.90;;;;;;4947152;28;20188;-86
2023/08/20 08:00:39;;;;;;;0.30;0.30;;;23.20;99.90;;;;;;4941140;28;20046;-90
2023/08/20 08:03:04;;;;;;;0.60;0.60;;;23.20;99.90;;;;;;4961038;28;20102;-89
2023/08/20 08:05:33;;;;;;;0.50;0.50;;;23.30;99.90;;;;;;4948448;28;20467;-92
2023/08/20 08:07:59;;;;;;;0.30;0.30;;;23.50;99.90;;;;;;4946019;28;20070;-86
2023/08/20 08:10:24;;;;;;;0.40;0.40;;;23.60;99.90;;;;;;4949226;28;20035;-88
2023/08/20 08:12:50;;;;;;;0.30;0.30;;;23.70;99.90;;;;;;4961716;28;20073;-86
2023/08/20 08:15:16;;;;;;;0.50;0.50;;;23.60;99.90;;;;;;4968591;28;20061;-89
2023/08/20 08:17:42;;;;;;;0.30;0.30;;;23.90;99.90;;;;;;4946144;28;20050;-89
2023/08/20 08:20:08;;;;;;;0.30;0.30;;;23.90;99.90;;;;;;4961540;28;20042;-87
2023/08/20 08:22:34;;;;;;;0.30;0.30;;;24.00;99.90;;;;;;4985547;28;20073;-88
2023/08/20 08:24:59;;;;;;;0.40;0.40;;;24.10;99.90;;;;;;4961175;28;20049;-89
2023/08/20 08:27:25;;;;;;;0.30;0.30;;;24.20;99.90;;;;;;4963603;28;20072;-88
2023/08/20 08:29:51;;;;;;;0.30;0.30;;;24.20;99.90;;;;;;4956979;28;20069;-88
2023/08/20 08:32:17;;;;;;;0.38;0.38;;;24.10;99.90;;;;;;4967040;28;20046;-88
2023/08/20 08:34:42;;;;;;;0.38;0.38;;;24.20;99.90;;;;;;4945971;28;20393;-89
2023/08/20 08:37:08;;;;;;;0.30;0.30;;;24.20;99.90;;;;;;4944785;28;20049;-88
2023/08/20 08:39:34;;;;;;;0.40;0.40;;;24.20;99.90;;;;;;4944873;28;20069;-88
2023/08/20 08:42:05;;;;;;;0.32;0.32;;;24.10;99.90;;;;;;4961983;28;20099;-87
2023/08/20 08:44:36;;;;;;;0.30;0.30;;;24.40;99.90;;;;;;4966099;28;20491;-90
2023/08/20 08:47:03;;;;;;;0.30;0.30;;;24.20;99.90;;;;;;4980152;28;20049;-84
2023/08/20 08:49:30;;;;;;;0.40;0.40;;;24.20;99.90;;;;;;4983240;28;20080;-89
2023/08/20 08:51:59;;;;;;;0.30;0.30;;;24.40;99.90;;;;;;4945747;28;20078;-88
2023/08/20 08:54:26;;;;;;;0.30;0.30;;;24.40;99.90;;;;;;4964948;28;20053;-89
2023/08/20 08:56:52;;;;;;;0.30;0.30;;;24.60;99.90;;;;;;4942363;28;20548;-85
2023/08/20 08:59:19;;;;;;;0.30;0.30;;;24.60;99.90;;;;;;4949915;28;20055;-89
2023/08/20 09:01:45;;;;;;;0.40;0.40;;;24.40;99.90;;;;;;4960249;28;20134;-86
2023/08/20 09:04:10;;;;;;;0.30;0.30;;;24.60;99.90;;;;;;4982072;28;20137;-84
2023/08/20 09:06:46;;;;;;;0.30;0.30;;;24.80;99.90;;;;;;4979918;28;20102;-87
2023/08/20 09:09:13;;;;;;;0.57;0.52;;;24.80;99.90;;;;;;4947440;28;20101;-90
2023/08/20 09:11:39;;;;;;;0.30;0.30;;;24.90;99.90;;;;;;4953262;28;20484;-91
2023/08/20 09:14:05;;;;;;;0.30;0.30;;;25.00;99.90;;;;;;4961918;28;20043;-89
2023/08/20 09:16:31;;;;;;;0.30;0.30;;;25.10;99.90;;;;;;4956208;28;20052;-88
2023/08/20 09:19:00;;;;;;;0.30;0.30;;;25.00;99.90;;;;;;4962548;28;20435;-92
2023/08/20 09:21:29;;;;;;;0.25;0.25;;;25.10;99.90;;;;;;4942455;28;20062;-87
2023/08/20 09:24:00;;;;;;;0.30;0.30;;;25.20;99.90;;;;;;4964872;28;20666;-86
2023/08/20 09:26:26;;;;;;;0.30;0.30;;;25.20;99.90;;;;;;4942855;28;20053;-87
2023/08/20 09:28:55;;;;;;;0.30;0.30;;;25.30;99.90;;;;;;4961568;28;20046;-89
2023/08/20 09:31:37;;;;;;;0.35;0.35;;;25.40;99.90;;;;;;4960919;28;20054;-87
2023/08/20 09:34:03;;;;;;;0.30;0.30;;;25.60;99.90;;;;;;4958622;28;20128;-90
2023/08/20 09:36:34;;;;;;;0.30;0.30;;;25.50;99.90;;;;;;4945462;28;20125;-90
2023/08/20 09:39:03;;;;;;;0.30;0.30;;;25.50;99.90;;;;;;4956381;28;20045;-86
2023/08/20 09:41:29;;;;;;;0.30;0.30;;;25.70;99.90;;;;;;4965937;28;20046;-88
2023/08/20 09:43:59;;;;;;;0.30;0.30;;;26.10;99.90;;;;;;4956533;28;20419;-89
2023/08/20 09:46:27;;;;;;;0.30;0.30;;;25.80;99.90;;;;;;4980958;28;20061;-87
2023/08/20 09:48:56;;;;;;;0.30;0.30;;;26.00;99.90;;;;;;4956719;28;20052;-87
2023/08/20 09:51:28;;;;;;;0.30;0.30;;;26.20;99.90;;;;;;4977460;28;20054;-88
2023/08/20 09:53:59;;;;;;;0.30;0.30;;;26.00;99.90;;;;;;4957571;28;20054;-86
2023/08/20 09:56:30;;;;;;;0.30;0.30;;;26.20;99.90;;;;;;4959488;28;20077;-88
2023/08/20 09:59:00;;;;;;;0.30;0.30;;;26.20;99.90;;;;;;4960817;28;20050;-89
2023/08/20 10:01:27;;;;;;;0.30;0.30;;;26.40;99.90;;;;;;4952193;28;20049;-87
2023/08/20 10:03:54;;;;;;;0.30;0.30;;;26.20;99.90;;;;;;4977594;28;20125;-91
2023/08/20 10:06:20;;;;;;;0.30;0.30;;;26.40;99.90;;;;;;4961443;28;20161;-88
2023/08/20 10:08:47;;;;;;;0.30;0.30;;;26.40;99.90;;;;;;4946147;28;20050;-89
2023/08/20 10:11:12;;;;;;;0.30;0.30;;;26.60;99.90;;;;;;4958715;28;20053;-89
2023/08/20 10:13:39;;;;;;;0.30;0.30;;;26.60;99.90;;;;;;4961160;28;20046;-88
2023/08/20 10:16:05;;;;;;;0.30;0.30;;;26.60;99.90;;;;;;4957421;28;20054;-88
2023/08/20 10:18:34;;;;;;;0.30;0.30;;;26.80;99.90;;;;;;4956502;28;20043;-90
2023/08/20 10:21:01;;;;;;;0.30;0.30;;;26.90;99.90;;;;;;4960011;28;20046;-88
2023/08/20 10:23:27;;;;;;;0.30;0.30;;;26.90;99.90;;;;;;4978261;28;20492;-87
2023/08/20 10:25:53;;;;;;;0.30;0.30;;;27.00;99.90;;;;;;4964633;28;20054;-91
2023/08/20 10:28:28;;;;;;;0.30;0.30;;;27.10;99.90;;;;;;4949112;28;20061;-88
2023/08/20 10:31:08;;;;;;;0.30;0.30;;;27.20;99.90;;;;;;4963889;28;20042;-87
2023/08/20 10:33:36;;;;;;;0.30;0.30;;;27.30;99.90;;;;;;4982323;28;20043;-86
2023/08/20 10:36:22;;;;;;;0.30;0.30;;;27.40;99.90;;;;;;4961647;28;20133;-87
2023/08/20 10:38:49;;;;;;;0.30;0.30;;;27.40;99.90;;;;;;4970131;28;20050;-93
2023/08/20 10:41:24;;;;;;;0.30;0.30;;;27.50;99.90;;;;;;4949933;28;20050;-92
2023/08/20 10:43:57;;;;;;;0.30;0.30;;;27.50;99.90;;;;;;4953424;28;20077;-95
2023/08/20 10:46:24;;;;;;;0.30;0.30;;;27.40;99.90;;;;;;4949288;28;20050;-92
2023/08/20 10:49:06;;;;;;;0.30;0.30;;;27.40;99.90;;;;;;4961065;28;20140;-93
2023/08/20 10:51:38;;;;;;;0.30;0.30;;;27.40;99.90;;;;;;4949514;28;20042;-94
2023/08/20 10:54:27;;;;;;;0.30;0.30;;;27.50;99.90;;;;;;4967299;28;20038;-96
2023/08/20 10:57:01;;;;;;;0.30;0.30;;;27.60;99.90;;;;;;4950433;28;20137;-89
2023/08/20 10:59:29;;;;;;;0.30;0.30;;;27.60;99.90;;;;;;4946088;28;20053;-93
2023/08/20 11:01:57;;;;;;;0.30;0.30;;;27.70;99.90;;;;;;4953033;28;20054;-91
2023/08/20 11:04:28;;;;;;;0.28;0.28;;;27.80;99.90;;;;;;4952091;28;20058;-93
2023/08/20 11:06:55;;;;;;;0.30;0.30;;;27.90;99.90;;;;;;4943347;28;20105;-89
2023/08/20 11:09:25;;;;;;;0.30;0.30;;;28.00;99.90;;;;;;4948493;28;20046;-90
2023/08/20 11:11:58;;;;;;;0.30;0.30;;;28.20;99.90;;;;;;4947528;28;20038;-94
2023/08/20 11:14:24;;;;;;;0.30;0.30;;;28.00;99.90;;;;;;4971727;28;20049;-90
2023/08/20 11:16:53;;;;;;;0.30;0.30;;;28.10;99.90;;;;;;4949362;28;20050;-92
2023/08/20 11:19:23;;;;;;;0.30;0.30;;;28.00;99.90;;;;;;4969842;28;20133;-93
2023/08/20 11:21:52;;;;;;;0.30;0.30;;;28.00;99.90;;;;;;4963703;28;20054;-91
2023/08/20 11:24:23;;;;;;;0.30;0.30;;;28.20;99.90;;;;;;4953208;28;20080;-94
2023/08/20 11:26:48;;;;;;;0.30;0.30;;;28.10;99.90;;;;;;4964998;28;20043;-91
2023/08/20 11:29:25;;;;;;;0.30;0.30;;;27.90;99.90;;;;;;4960633;28;20538;-94
2023/08/20 11:31:52;;;;;;;0.30;0.30;;;27.70;99.90;;;;;;4982614;28;20050;-92
2023/08/20 11:34:21;;;;;;;0.30;0.30;;;28.10;99.90;;;;;;4951828;28;20112;-96
2023/08/20 11:36:48;;;;;;;0.30;0.30;;;28.20;99.90;;;;;;4946873;28;20082;-92
2023/08/20 11:39:56;;;;;;;0.30;0.30;;;28.20;99.90;;;;;;4964756;28;20589;-93
2023/08/20 11:42:25;;;;;;;0.30;0.30;;;28.30;99.90;;;;;;4951383;28;20059;-96
2023/08/20 11:44:54;;;;;;;0.30;0.30;;;28.30;99.90;;;;;;4948459;28;20043;-92
2023/08/20 11:47:20;;;;;;;0.30;0.30;;;28.30;99.90;;;;;;4969049;28;20042;-92
2023/08/20 11:49:46;;;;;;;0.30;0.30;;;28.40;99.90;;;;;;4942402;28;20509;-93
2023/08/20 11:52:13;;;;;;;0.30;0.30;;;28.60;99.90;;;;;;4942325;28;20093;-95
2023/08/20 11:54:39;;;;;;;0.30;0.30;;;28.60;99.90;;;;;;4949368;28;21383;-96
2023/08/20 11:57:14;;;;;;;0.30;0.30;;;28.60;99.90;;;;;;4943721;28;20046;-96
2023/08/20 11:59:43;;;;;;;0.30;0.30;;;28.60;99.90;;;;;;4951572;28;20484;-91
2023/08/20 12:02:08;;;;;;;0.22;0.22;;;28.90;99.90;;;;;;4965752;28;20111;-91
2023/08/20 12:04:39;;;;;;;0.20;0.20;;;29.00;99.90;;;;;;4988102;28;20054;-94
2023/08/20 12:07:27;;;;;;;0.20;0.20;;;29.10;99.90;;;;;;4988377;28;20054;-96
2023/08/20 12:09:56;;;;;;;0.30;0.30;;;29.10;99.90;;;;;;4945443;28;20116;-90
2023/08/20 12:12:37;;;;;;;0.30;0.30;;;29.10;99.90;;;;;;4952648;28;20637;-96
2023/08/20 12:15:29;;;;;;;0.30;0.30;;;29.10;99.90;;;;;;4942130;28;20608;-93
2023/08/20 12:18:05;;;;;;;0.30;0.30;;;29.10;99.90;;;;;;4949727;28;20510;-93
2023/08/20 12:20:35;;;;;;;0.30;0.30;;;29.10;99.90;;;;;;4947169;28;20568;-93
2023/08/20 12:23:08;;;;;;;0.30;0.30;;;29.10;99.90;;;;;;4948629;28;20044;-92
2023/08/20 12:25:35;;;;;;;0.38;0.38;;;29.20;99.90;;;;;;4967911;28;20104;-91
2023/08/20 12:28:04;;;;;;;0.30;0.30;;;28.90;99.90;;;;;;4962732;28;20046;-90
2023/08/20 12:30:34;;;;;;;0.20;0.20;;;29.10;99.90;;;;;;4979990;28;20097;-92
2023/08/20 12:33:00;;;;;;;0.30;0.30;;;29.00;99.90;;;;;;4948308;28;20066;-89
2023/08/20 12:35:26;;;;;;;0.30;0.30;;;28.80;99.90;;;;;;4960705;28;20061;-95
2023/08/20 12:37:52;;;;;;;0.20;0.20;;;28.60;99.90;;;;;;4946372;28;20054;-91
2023/08/20 12:40:17;;;;;;;0.30;0.30;;;28.30;99.90;;;;;;4960359;28;20058;-90
2023/08/20 12:42:43;;;;;;;0.30;0.30;;;28.20;99.90;;;;;;4966295;28;20054;-90
2023/08/20 12:45:13;;;;;;;0.22;0.22;;;28.30;99.90;;;;;;4949003;28;20081;-90
2023/08/20 12:47:39;;;;;;;0.30;0.30;;;28.80;99.90;;;;;;4948618;28;20121;-91
2023/08/20 12:50:31;;;;;;;0.20;0.20;;;29.00;99.90;;;;;;4968020;28;20181;-96